sensor_id;sensor_type;location;lat;lon;timestamp;temperature;humidity
5786;DHT22;2919;48.630;9.000;2022-11-18T00:00:44;6.80;99.90
5786;DHT22;2919;48.630;9.000;2022-11-18T00:03:10;6.80;99.90
5786;DHT22;2919;48.630;9.000;2022-11-18T00:05:35;6.90;99.90
5786;DHT22;2919;48.630;9.000;2022-11-18T00:08:01;6.80;99.90
5786;DHT22;2919;48.630;9.000;2022-11-18T00:10:26;6.80;99.90
5786;DHT22;2919;48.630;9.000;2022-11-18T00:12:52;6.80;99.90
5786;DHT22;2919;48.630;9.000;2022-11-18T00:15:36;6.90;99.90
5786;DHT22;2919;48.630;9.000;2022-11-18T00:18:02;6.90;99.90
5786;DHT22;2919;48.630;9.000;2022-11-18T00:20:27;6.90;99.90
5786;DHT22;2919;48.630;9.000;2022-11-18T00:22:53;6.90;99.90
5786;DHT22;2919;48.630;9.000;2022-11-18T00:25:19;6.90;99.90
5786;DHT22;2919;48.630;9.000;2022-11-18T00:27:44;6.90;99.90
5786;DHT22;2919;48.630;9.000;2022-11-18T00:30:10;6.90;99.90
5786;DHT22;2919;48.630;9.000;2022-11-18T00:32:36;6.90;99.90
5786;DHT22;2919;48.630;9.000;2022-11-18T00:35:01;6.90;99.90
5786;DHT22;2919;48.630;9.000;2022-11-18T00:37:27;6.90;99.90
5786;DHT22;2919;48.630;9.000;2022-11-18T00:39:52;6.80;99.90
5786;DHT22;2919;48.630;9.000;2022-11-18T00:42:18;6.80;99.90
5786;DHT22;2919;48.630;9.000;2022-11-18T00:45:02;6.80;99.90
5786;DHT22;2919;48.630;9.000;2022-11-18T00:47:28;6.80;99.90
5786;DHT22;2919;48.630;9.000;2022-11-18T00:49:53;6.80;99.90
5786;DHT22;2919;48.630;9.000;2022-11-18T00:52:19;6.80;99.90
5786;DHT22;2919;48.630;9.000;2022-11-18T00:54:44;6.80;99.90
5786;DHT22;2919;48.630;9.000;2022-11-18T00:57:10;6.80;99.90
5786;DHT22;2919;48.630;9.000;2022-11-18T00:59:36;6.80;99.90
5786;DHT22;2919;48.630;9.000;2022-11-18T01:02:01;6.80;99.90
5786;DHT22;2919;48.630;9.000;2022-11-18T01:04:27;6.80;99.90
5786;DHT22;2919;48.630;9.000;2022-11-18T01:06:52;6.80;99.90
5786;DHT22;2919;48.630;9.000;2022-11-18T01:09:18;6.80;99.90
5786;DHT22;2919;48.630;9.000;2022-11-18T01:11:43;6.80;99.90
5786;DHT22;2919;48.630;9.000;2022-11-18T01:14:28;6.80;99.90
5786;DHT22;2919;48.630;9.000;2022-11-18T01:16:54;6.80;99.90
5786;DHT22;2919;48.630;9.000;2022-11-18T01:19:20;6.80;99.90
5786;DHT22;2919;48.630;9.000;2022-11-18T01:21:47;6.80;99.90
5786;DHT22;2919;48.630;9.000;2022-11-18T01:24:12;6.80;99.90
5786;DHT22;2919;48.630;9.000;2022-11-18T01:26:38;6.80;99.90
5786;DHT22;2919;48.630;9.000;2022-11-18T01:29:04;6.80;99.90
5786;DHT22;2919;48.630;9.000;2022-11-18T01:31:29;6.80;99.90
5786;DHT22;2919;48.630;9.000;2022-11-18T01:33:55;6.80;99.90
5786;DHT22;2919;48.630;9.000;2022-11-18T01:36:23;6.90;99.90
5786;DHT22;2919;48.630;9.000;2022-11-18T01:38:50;6.80;99.90
5786;DHT22;2919;48.630;9.000;2022-11-18T01:41:17;6.90;99.90
5786;DHT22;2919;48.630;9.000;2022-11-18T01:46:21;6.80;99.90
5786;DHT22;2919;48.630;9.000;2022-11-18T01:48:51;6.80;99.90
5786;DHT22;2919;48.630;9.000;2022-11-18T01:51:22;6.80;99.90
5786;DHT22;2919;48.630;9.000;2022-11-18T01:53:52;6.80;99.90
5786;DHT22;2919;48.630;9.000;2022-11-18T01:56:23;6.80;99.90
5786;DHT22;2919;48.630;9.000;2022-11-18T01:58:56;6.80;99.90
5786;DHT22;2919;48.630;9.000;2022-11-18T02:01:23;6.80;99.90
5786;DHT22;2919;48.630;9.000;2022-11-18T02:03:49;6.80;99.90
5786;DHT22;2919;48.630;9.000;2022-11-18T02:06:17;6.80;99.90
5786;DHT22;2919;48.630;9.000;2022-11-18T02:08:43;6.80;99.90
5786;DHT22;2919;48.630;9.000;2022-11-18T02:11:12;6.80;99.90
5786;DHT22;2919;48.630;9.000;2022-11-18T02:13:59;6.80;99.90
5786;DHT22;2919;48.630;9.000;2022-11-18T02:17:09;6.80;99.90
5786;DHT22;2919;48.630;9.000;2022-11-18T02:25:45;6.80;99.90
5786;DHT22;2919;48.630;9.000;2022-11-18T02:28:45;6.70;99.90
5786;DHT22;2919;48.630;9.000;2022-11-18T02:31:23;6.70;99.90
5786;DHT22;2919;48.630;9.000;2022-11-18T02:33:53;6.70;99.90
5786;DHT22;2919;48.630;9.000;2022-11-18T02:38:49;6.80;99.90
5786;DHT22;2919;48.630;9.000;2022-11-18T02:41:21;6.80;99.90
5786;DHT22;2919;48.630;9.000;2022-11-18T02:44:06;6.80;99.90
5786;DHT22;2919;48.630;9.000;2022-11-18T02:46:36;6.80;99.90
5786;DHT22;2919;48.630;9.000;2022-11-18T02:49:07;6.80;99.90
5786;DHT22;2919;48.630;9.000;2022-11-18T02:51:35;6.80;99.90
5786;DHT22;2919;48.630;9.000;2022-11-18T02:54:04;6.80;99.90
5786;DHT22;2919;48.630;9.000;2022-11-18T02:56:33;6.80;99.90
5786;DHT22;2919;48.630;9.000;2022-11-18T02:58:59;6.80;99.90
5786;DHT22;2919;48.630;9.000;2022-11-18T03:01:28;6.80;99.90
5786;DHT22;2919;48.630;9.000;2022-11-18T03:03:54;6.80;99.90
5786;DHT22;2919;48.630;9.000;2022-11-18T03:06:55;6.80;99.90
5786;DHT22;2919;48.630;9.000;2022-11-18T03:09:28;6.80;99.90
5786;DHT22;2919;48.630;9.000;2022-11-18T03:17:52;6.70;99.90
5786;DHT22;2919;48.630;9.000;2022-11-18T03:23:05;6.80;99.90
5786;DHT22;2919;48.630;9.000;2022-11-18T03:25:50;6.70;99.90
5786;DHT22;2919;48.630;9.000;2022-11-18T03:31:20;6.70;99.90
5786;DHT22;2919;48.630;9.000;2022-11-18T03:33:51;6.70;99.90
5786;DHT22;2919;48.630;9.000;2022-11-18T03:36:20;6.70;99.90
5786;DHT22;2919;48.630;9.000;2022-11-18T03:38:50;6.70;99.90
5786;DHT22;2919;48.630;9.000;2022-11-18T03:41:20;6.70;99.90
5786;DHT22;2919;48.630;9.000;2022-11-18T03:43:59;6.70;99.90
5786;DHT22;2919;48.630;9.000;2022-11-18T03:46:40;6.70;99.90
5786;DHT22;2919;48.630;9.000;2022-11-18T03:49:08;6.70;99.90
5786;DHT22;2919;48.630;9.000;2022-11-18T03:51:40;6.70;99.90
5786;DHT22;2919;48.630;9.000;2022-11-18T03:54:16;6.80;99.90
5786;DHT22;2919;48.630;9.000;2022-11-18T03:56:48;6.80;99.90
5786;DHT22;2919;48.630;9.000;2022-11-18T03:59:20;6.80;99.90
5786;DHT22;2919;48.630;9.000;2022-11-18T04:02:14;6.80;99.90
5786;DHT22;2919;48.630;9.000;2022-11-18T04:04:41;6.80;99.90
5786;DHT22;2919;48.630;9.000;2022-11-18T04:07:31;6.80;99.90
5786;DHT22;2919;48.630;9.000;2022-11-18T04:10:03;6.80;99.90
5786;DHT22;2919;48.630;9.000;2022-11-18T04:12:32;6.80;99.90
5786;DHT22;2919;48.630;9.000;2022-11-18T04:14:59;6.80;99.90
5786;DHT22;2919;48.630;9.000;2022-11-18T04:17:27;6.70;99.90
5786;DHT22;2919;48.630;9.000;2022-11-18T04:19:53;6.70;99.90
5786;DHT22;2919;48.630;9.000;2022-11-18T04:22:19;6.70;99.90
5786;DHT22;2919;48.630;9.000;2022-11-18T04:24:45;6.60;99.90
5786;DHT22;2919;48.630;9.000;2022-11-18T04:27:10;6.60;99.90
5786;DHT22;2919;48.630;9.000;2022-11-18T04:29:36;6.50;99.90
5786;DHT22;2919;48.630;9.000;2022-11-18T04:32:02;6.50;99.90
5786;DHT22;2919;48.630;9.000;2022-11-18T04:34:29;6.50;99.90
5786;DHT22;2919;48.630;9.000;2022-11-18T04:36:55;6.40;99.90
5786;DHT22;2919;48.630;9.000;2022-11-18T04:39:21;6.40;99.90
5786;DHT22;2919;48.630;9.000;2022-11-18T04:41:47;6.40;99.90
5786;DHT22;2919;48.630;9.000;2022-11-18T04:44:29;6.40;99.90
5786;DHT22;2919;48.630;9.000;2022-11-18T04:46:56;6.40;99.90
5786;DHT22;2919;48.630;9.000;2022-11-18T04:49:23;6.40;99.90
5786;DHT22;2919;48.630;9.000;2022-11-18T04:51:50;6.40;99.90
5786;DHT22;2919;48.630;9.000;2022-11-18T04:54:16;6.30;99.90
5786;DHT22;2919;48.630;9.000;2022-11-18T04:56:43;6.30;99.90
5786;DHT22;2919;48.630;9.000;2022-11-18T04:59:10;6.40;99.90
5786;DHT22;2919;48.630;9.000;2022-11-18T05:01:36;6.40;99.90
5786;DHT22;2919;48.630;9.000;2022-11-18T05:04:03;6.40;99.90
5786;DHT22;2919;48.630;9.000;2022-11-18T05:06:29;6.40;99.90
5786;DHT22;2919;48.630;9.000;2022-11-18T05:08:57;6.40;99.90
5786;DHT22;2919;48.630;9.000;2022-11-18T05:11:23;6.40;99.90
5786;DHT22;2919;48.630;9.000;2022-11-18T05:14:06;6.40;99.90
5786;DHT22;2919;48.630;9.000;2022-11-18T05:16:32;6.40;99.90
5786;DHT22;2919;48.630;9.000;2022-11-18T05:18:58;6.40;99.90
5786;DHT22;2919;48.630;9.000;2022-11-18T05:21:23;6.40;99.90
5786;DHT22;2919;48.630;9.000;2022-11-18T05:23:49;6.40;99.90
5786;DHT22;2919;48.630;9.000;2022-11-18T05:26:14;6.40;99.90
5786;DHT22;2919;48.630;9.000;2022-11-18T05:28:40;6.40;99.90
5786;DHT22;2919;48.630;9.000;2022-11-18T05:31:10;6.40;99.90
5786;DHT22;2919;48.630;9.000;2022-11-18T05:33:37;6.40;99.90
5786;DHT22;2919;48.630;9.000;2022-11-18T05:36:14;6.40;99.90
5786;DHT22;2919;48.630;9.000;2022-11-18T05:38:40;6.40;99.90
5786;DHT22;2919;48.630;9.000;2022-11-18T05:41:06;6.30;99.90
5786;DHT22;2919;48.630;9.000;2022-11-18T05:43:33;6.30;99.90
5786;DHT22;2919;48.630;9.000;2022-11-18T05:45:59;6.30;99.90
5786;DHT22;2919;48.630;9.000;2022-11-18T05:48:24;6.30;99.90
5786;DHT22;2919;48.630;9.000;2022-11-18T05:50:51;6.30;99.90
5786;DHT22;2919;48.630;9.000;2022-11-18T05:53:19;6.20;99.90
5786;DHT22;2919;48.630;9.000;2022-11-18T05:56:00;6.20;99.90
5786;DHT22;2919;48.630;9.000;2022-11-18T05:58:29;6.20;99.90
5786;DHT22;2919;48.630;9.000;2022-11-18T06:00:55;6.20;99.90
5786;DHT22;2919;48.630;9.000;2022-11-18T06:03:27;6.20;99.90
5786;DHT22;2919;48.630;9.000;2022-11-18T06:05:54;6.20;99.90
5786;DHT22;2919;48.630;9.000;2022-11-18T06:08:22;6.20;99.90
5786;DHT22;2919;48.630;9.000;2022-11-18T06:10:50;6.20;99.90
5786;DHT22;2919;48.630;9.000;2022-11-18T06:13:29;6.20;99.90
5786;DHT22;2919;48.630;9.000;2022-11-18T06:15:55;6.20;99.90
5786;DHT22;2919;48.630;9.000;2022-11-18T06:18:22;6.20;99.90
5786;DHT22;2919;48.630;9.000;2022-11-18T06:20:50;6.20;99.90
5786;DHT22;2919;48.630;9.000;2022-11-18T06:23:17;6.20;99.90
5786;DHT22;2919;48.630;9.000;2022-11-18T06:25:43;6.10;99.90
5786;DHT22;2919;48.630;9.000;2022-11-18T06:28:10;6.10;99.90
5786;DHT22;2919;48.630;9.000;2022-11-18T06:30:36;6.20;99.90
5786;DHT22;2919;48.630;9.000;2022-11-18T06:33:01;6.10;99.90
5786;DHT22;2919;48.630;9.000;2022-11-18T06:35:27;6.10;99.90
5786;DHT22;2919;48.630;9.000;2022-11-18T06:37:52;6.10;99.90
5786;DHT22;2919;48.630;9.000;2022-11-18T06:40:18;6.10;99.90
5786;DHT22;2919;48.630;9.000;2022-11-18T06:42:43;6.10;99.90
5786;DHT22;2919;48.630;9.000;2022-11-18T06:45:28;6.10;99.90
5786;DHT22;2919;48.630;9.000;2022-11-18T06:47:58;6.10;99.90
5786;DHT22;2919;48.630;9.000;2022-11-18T06:50:27;6.00;99.90
5786;DHT22;2919;48.630;9.000;2022-11-18T06:52:53;6.00;99.90
5786;DHT22;2919;48.630;9.000;2022-11-18T06:55:19;6.00;99.90
5786;DHT22;2919;48.630;9.000;2022-11-18T06:57:44;6.00;99.90
5786;DHT22;2919;48.630;9.000;2022-11-18T07:00:11;6.00;99.90
5786;DHT22;2919;48.630;9.000;2022-11-18T07:02:37;6.00;99.90
5786;DHT22;2919;48.630;9.000;2022-11-18T07:05:04;6.00;99.90
5786;DHT22;2919;48.630;9.000;2022-11-18T07:07:30;6.00;99.90
5786;DHT22;2919;48.630;9.000;2022-11-18T07:09:55;6.10;99.90
5786;DHT22;2919;48.630;9.000;2022-11-18T07:12:21;6.10;99.90
5786;DHT22;2919;48.630;9.000;2022-11-18T07:14:46;6.10;99.90
5786;DHT22;2919;48.630;9.000;2022-11-18T07:17:12;6.10;99.90
5786;DHT22;2919;48.630;9.000;2022-11-18T07:19:38;6.10;99.90
5786;DHT22;2919;48.630;9.000;2022-11-18T07:22:04;6.10;99.90
5786;DHT22;2919;48.630;9.000;2022-11-18T07:24:32;6.20;99.90
5786;DHT22;2919;48.630;9.000;2022-11-18T07:26:58;6.20;99.90
5786;DHT22;2919;48.630;9.000;2022-11-18T07:29:23;6.20;99.90
5786;DHT22;2919;48.630;9.000;2022-11-18T07:31:49;6.30;99.90
5786;DHT22;2919;48.630;9.000;2022-11-18T07:34:15;6.20;99.90
5786;DHT22;2919;48.630;9.000;2022-11-18T07:36:40;6.20;99.90
5786;DHT22;2919;48.630;9.000;2022-11-18T07:39:06;6.30;99.90
5786;DHT22;2919;48.630;9.000;2022-11-18T07:41:33;6.30;99.90
5786;DHT22;2919;48.630;9.000;2022-11-18T07:44:00;6.30;99.90
5786;DHT22;2919;48.630;9.000;2022-11-18T07:48:55;6.40;99.90
5786;DHT22;2919;48.630;9.000;2022-11-18T07:51:23;6.40;99.90
5786;DHT22;2919;48.630;9.000;2022-11-18T07:53:49;6.40;99.90
5786;DHT22;2919;48.630;9.000;2022-11-18T07:56:15;6.40;99.90
5786;DHT22;2919;48.630;9.000;2022-11-18T07:58:42;6.40;99.90
5786;DHT22;2919;48.630;9.000;2022-11-18T08:01:13;6.50;99.90
5786;DHT22;2919;48.630;9.000;2022-11-18T08:03:39;6.50;99.90
5786;DHT22;2919;48.630;9.000;2022-11-18T08:06:06;6.50;99.90
5786;DHT22;2919;48.630;9.000;2022-11-18T08:08:32;6.50;99.90
5786;DHT22;2919;48.630;9.000;2022-11-18T08:10:59;6.50;99.90
5786;DHT22;2919;48.630;9.000;2022-11-18T08:13:26;6.50;99.90
5786;DHT22;2919;48.630;9.000;2022-11-18T08:15:52;6.60;99.90
5786;DHT22;2919;48.630;9.000;2022-11-18T08:18:18;6.60;99.90
5786;DHT22;2919;48.630;9.000;2022-11-18T08:20:44;6.60;99.90
5786;DHT22;2919;48.630;9.000;2022-11-18T08:23:11;6.60;99.90
5786;DHT22;2919;48.630;9.000;2022-11-18T08:25:37;6.60;99.90
5786;DHT22;2919;48.630;9.000;2022-11-18T08:28:03;6.60;99.90
5786;DHT22;2919;48.630;9.000;2022-11-18T08:30:28;6.60;99.90
5786;DHT22;2919;48.630;9.000;2022-11-18T08:32:54;6.60;99.90
5786;DHT22;2919;48.630;9.000;2022-11-18T08:35:20;6.60;99.90
5786;DHT22;2919;48.630;9.000;2022-11-18T08:37:45;6.70;99.90
5786;DHT22;2919;48.630;9.000;2022-11-18T08:40:11;6.70;99.90
5786;DHT22;2919;48.630;9.000;2022-11-18T08:42:37;6.70;99.90
5786;DHT22;2919;48.630;9.000;2022-11-18T08:45:04;6.70;99.90
5786;DHT22;2919;48.630;9.000;2022-11-18T08:47:33;6.60;99.90
5786;DHT22;2919;48.630;9.000;2022-11-18T08:49:58;6.60;99.90
5786;DHT22;2919;48.630;9.000;2022-11-18T08:52:24;6.60;99.90
5786;DHT22;2919;48.630;9.000;2022-11-18T08:54:49;6.60;99.90
5786;DHT22;2919;48.630;9.000;2022-11-18T08:57:15;6.70;99.90
5786;DHT22;2919;48.630;9.000;2022-11-18T08:59:40;6.70;99.90
5786;DHT22;2919;48.630;9.000;2022-11-18T09:02:13;6.70;99.90
5786;DHT22;2919;48.630;9.000;2022-11-18T09:04:39;6.70;99.90
5786;DHT22;2919;48.630;9.000;2022-11-18T09:07:04;6.70;99.90
5786;DHT22;2919;48.630;9.000;2022-11-18T09:09:30;6.70;99.90
5786;DHT22;2919;48.630;9.000;2022-11-18T09:11:56;6.70;99.90
5786;DHT22;2919;48.630;9.000;2022-11-18T09:14:21;6.70;99.90
5786;DHT22;2919;48.630;9.000;2022-11-18T09:16:47;6.70;99.90
5786;DHT22;2919;48.630;9.000;2022-11-18T09:19:14;6.70;99.90
5786;DHT22;2919;48.630;9.000;2022-11-18T09:21:40;6.70;99.90
5786;DHT22;2919;48.630;9.000;2022-11-18T09:24:06;6.70;99.90
5786;DHT22;2919;48.630;9.000;2022-11-18T09:26:32;6.80;99.90
5786;DHT22;2919;48.630;9.000;2022-11-18T09:28:57;6.90;99.90
5786;DHT22;2919;48.630;9.000;2022-11-18T09:31:23;6.90;99.90
5786;DHT22;2919;48.630;9.000;2022-11-18T09:33:49;7.00;99.90
5786;DHT22;2919;48.630;9.000;2022-11-18T09:36:18;7.00;99.90
5786;DHT22;2919;48.630;9.000;2022-11-18T09:38:44;7.10;99.90
5786;DHT22;2919;48.630;9.000;2022-11-18T09:49:02;7.20;99.90
5786;DHT22;2919;48.630;9.000;2022-11-18T09:51:39;7.20;99.90
5786;DHT22;2919;48.630;9.000;2022-11-18T09:54:21;7.30;99.90
5786;DHT22;2919;48.630;9.000;2022-11-18T09:56:48;7.30;99.90
5786;DHT22;2919;48.630;9.000;2022-11-18T09:59:17;7.30;99.90
5786;DHT22;2919;48.630;9.000;2022-11-18T10:01:44;7.30;99.90
5786;DHT22;2919;48.630;9.000;2022-11-18T10:04:20;7.40;99.90
5786;DHT22;2919;48.630;9.000;2022-11-18T10:06:47;7.60;99.90
5786;DHT22;2919;48.630;9.000;2022-11-18T10:09:32;7.60;99.90
5786;DHT22;2919;48.630;9.000;2022-11-18T10:14:38;7.90;99.90
5786;DHT22;2919;48.630;9.000;2022-11-18T10:19:56;8.00;99.90
5786;DHT22;2919;48.630;9.000;2022-11-18T10:25:12;8.00;99.90
5786;DHT22;2919;48.630;9.000;2022-11-18T10:27:41;8.00;99.90
5786;DHT22;2919;48.630;9.000;2022-11-18T10:30:20;8.10;99.90
5786;DHT22;2919;48.630;9.000;2022-11-18T10:33:22;8.10;99.90
5786;DHT22;2919;48.630;9.000;2022-11-18T10:35:48;8.20;99.90
5786;DHT22;2919;48.630;9.000;2022-11-18T10:38:17;8.30;99.90
5786;DHT22;2919;48.630;9.000;2022-11-18T10:40:56;8.30;99.90
5786;DHT22;2919;48.630;9.000;2022-11-18T10:46:22;8.30;99.90
5786;DHT22;2919;48.630;9.000;2022-11-18T10:51:35;8.20;99.90
5786;DHT22;2919;48.630;9.000;2022-11-18T10:54:18;8.20;99.90
5786;DHT22;2919;48.630;9.000;2022-11-18T11:04:47;7.80;99.90
5786;DHT22;2919;48.630;9.000;2022-11-18T11:07:30;7.80;99.90
5786;DHT22;2919;48.630;9.000;2022-11-18T11:12:39;7.70;99.90
5786;DHT22;2919;48.630;9.000;2022-11-18T11:15:37;7.70;99.90
5786;DHT22;2919;48.630;9.000;2022-11-18T11:18:31;7.70;99.90
5786;DHT22;2919;48.630;9.000;2022-11-18T11:21:14;7.80;99.90
5786;DHT22;2919;48.630;9.000;2022-11-18T11:23:41;7.80;99.90
5786;DHT22;2919;48.630;9.000;2022-11-18T11:29:39;7.90;99.90
5786;DHT22;2919;48.630;9.000;2022-11-18T11:34:58;8.00;99.90
5786;DHT22;2919;48.630;9.000;2022-11-18T11:37:40;8.00;99.90
5786;DHT22;2919;48.630;9.000;2022-11-18T11:40:41;8.10;99.90
5786;DHT22;2919;48.630;9.000;2022-11-18T11:59:52;8.40;99.90
5786;DHT22;2919;48.630;9.000;2022-11-18T12:07:28;8.40;99.90
5786;DHT22;2919;48.630;9.000;2022-11-18T12:18:43;8.50;99.90
5786;DHT22;2919;48.630;9.000;2022-11-18T12:24:40;8.40;99.90
5786;DHT22;2919;48.630;9.000;2022-11-18T12:29:56;8.30;99.90
5786;DHT22;2919;48.630;9.000;2022-11-18T12:35:03;8.20;99.90
5786;DHT22;2919;48.630;9.000;2022-11-18T12:48:37;8.50;99.90
5786;DHT22;2919;48.630;9.000;2022-11-18T12:53:42;8.60;99.90
5786;DHT22;2919;48.630;9.000;2022-11-18T12:58:36;8.70;99.90
5786;DHT22;2919;48.630;9.000;2022-11-18T13:01:08;8.70;99.90
5786;DHT22;2919;48.630;9.000;2022-11-18T13:03:35;8.60;99.90
5786;DHT22;2919;48.630;9.000;2022-11-18T13:09:00;8.40;99.90
5786;DHT22;2919;48.630;9.000;2022-11-18T13:11:28;8.40;99.90
5786;DHT22;2919;48.630;9.000;2022-11-18T13:14:34;8.20;99.90
5786;DHT22;2919;48.630;9.000;2022-11-18T13:17:27;8.20;99.90
5786;DHT22;2919;48.630;9.000;2022-11-18T13:26:32;8.10;99.90
5786;DHT22;2919;48.630;9.000;2022-11-18T13:32:07;8.10;99.90
5786;DHT22;2919;48.630;9.000;2022-11-18T13:35:06;8.20;99.90
5786;DHT22;2919;48.630;9.000;2022-11-18T13:37:34;8.20;99.90
5786;DHT22;2919;48.630;9.000;2022-11-18T13:40:00;8.20;99.90
5786;DHT22;2919;48.630;9.000;2022-11-18T13:42:30;8.20;99.90
5786;DHT22;2919;48.630;9.000;2022-11-18T13:44:57;8.20;99.90
5786;DHT22;2919;48.630;9.000;2022-11-18T13:55:27;8.20;99.90
5786;DHT22;2919;48.630;9.000;2022-11-18T14:00:41;8.00;99.90
5786;DHT22;2919;48.630;9.000;2022-11-18T14:06:04;8.00;99.90
5786;DHT22;2919;48.630;9.000;2022-11-18T14:08:31;8.00;99.90
5786;DHT22;2919;48.630;9.000;2022-11-18T14:10:58;8.00;99.90
5786;DHT22;2919;48.630;9.000;2022-11-18T14:15:51;8.00;99.90
5786;DHT22;2919;48.630;9.000;2022-11-18T14:18:34;7.90;99.90
5786;DHT22;2919;48.630;9.000;2022-11-18T14:21:02;7.90;99.90
5786;DHT22;2919;48.630;9.000;2022-11-18T14:23:34;7.90;99.90
5786;DHT22;2919;48.630;9.000;2022-11-18T14:26:03;7.90;99.90
5786;DHT22;2919;48.630;9.000;2022-11-18T14:28:32;8.00;99.90
5786;DHT22;2919;48.630;9.000;2022-11-18T14:33:29;8.00;99.90
5786;DHT22;2919;48.630;9.000;2022-11-18T14:36:23;8.10;99.90
5786;DHT22;2919;48.630;9.000;2022-11-18T14:38:50;8.20;99.90
5786;DHT22;2919;48.630;9.000;2022-11-18T14:41:17;8.20;99.90
5786;DHT22;2919;48.630;9.000;2022-11-18T14:44:03;8.20;99.90
5786;DHT22;2919;48.630;9.000;2022-11-18T14:46:29;8.20;99.90
5786;DHT22;2919;48.630;9.000;2022-11-18T14:48:55;8.20;99.90
5786;DHT22;2919;48.630;9.000;2022-11-18T14:51:21;8.10;99.90
5786;DHT22;2919;48.630;9.000;2022-11-18T14:53:46;8.10;99.90
5786;DHT22;2919;48.630;9.000;2022-11-18T14:56:22;8.00;99.90
5786;DHT22;2919;48.630;9.000;2022-11-18T14:58:49;8.00;99.90
5786;DHT22;2919;48.630;9.000;2022-11-18T15:01:15;8.00;99.90
5786;DHT22;2919;48.630;9.000;2022-11-18T15:03:41;7.90;99.90
5786;DHT22;2919;48.630;9.000;2022-11-18T15:06:18;7.80;99.90
5786;DHT22;2919;48.630;9.000;2022-11-18T15:08:46;7.80;99.90
5786;DHT22;2919;48.630;9.000;2022-11-18T15:11:12;7.80;99.90
5786;DHT22;2919;48.630;9.000;2022-11-18T15:13:39;7.80;99.90
5786;DHT22;2919;48.630;9.000;2022-11-18T15:18:38;7.70;99.90
5786;DHT22;2919;48.630;9.000;2022-11-18T15:21:04;7.70;99.90
5786;DHT22;2919;48.630;9.000;2022-11-18T15:23:30;7.70;99.90
5786;DHT22;2919;48.630;9.000;2022-11-18T15:25:55;7.70;99.90
5786;DHT22;2919;48.630;9.000;2022-11-18T15:28:21;7.70;99.90
5786;DHT22;2919;48.630;9.000;2022-11-18T15:30:47;7.60;99.90
5786;DHT22;2919;48.630;9.000;2022-11-18T15:33:12;7.60;99.90
5786;DHT22;2919;48.630;9.000;2022-11-18T15:35:38;7.60;99.90
5786;DHT22;2919;48.630;9.000;2022-11-18T15:38:04;7.60;99.90
5786;DHT22;2919;48.630;9.000;2022-11-18T15:40:29;7.50;99.90
5786;DHT22;2919;48.630;9.000;2022-11-18T15:42:55;7.50;99.90
5786;DHT22;2919;48.630;9.000;2022-11-18T15:45:20;7.40;99.90
5786;DHT22;2919;48.630;9.000;2022-11-18T15:47:46;7.40;99.90
5786;DHT22;2919;48.630;9.000;2022-11-18T15:50:11;7.40;99.90
5786;DHT22;2919;48.630;9.000;2022-11-18T15:52:37;7.40;99.90
5786;DHT22;2919;48.630;9.000;2022-11-18T15:55:03;7.30;99.90
5786;DHT22;2919;48.630;9.000;2022-11-18T15:57:28;7.30;99.90
5786;DHT22;2919;48.630;9.000;2022-11-18T15:59:54;7.30;99.90
5786;DHT22;2919;48.630;9.000;2022-11-18T16:02:20;7.30;99.90
5786;DHT22;2919;48.630;9.000;2022-11-18T16:04:45;7.30;99.90
5786;DHT22;2919;48.630;9.000;2022-11-18T16:07:11;7.30;99.90
5786;DHT22;2919;48.630;9.000;2022-11-18T16:09:36;7.20;99.90
5786;DHT22;2919;48.630;9.000;2022-11-18T16:12:21;7.10;99.90
5786;DHT22;2919;48.630;9.000;2022-11-18T16:15:06;7.10;99.90
5786;DHT22;2919;48.630;9.000;2022-11-18T16:17:50;6.90;99.90
5786;DHT22;2919;48.630;9.000;2022-11-18T16:20:15;6.80;99.90
5786;DHT22;2919;48.630;9.000;2022-11-18T16:22:41;6.80;99.90
5786;DHT22;2919;48.630;9.000;2022-11-18T16:25:07;6.80;99.90
5786;DHT22;2919;48.630;9.000;2022-11-18T16:27:34;6.80;99.90
5786;DHT22;2919;48.630;9.000;2022-11-18T16:30:00;6.80;99.90
5786;DHT22;2919;48.630;9.000;2022-11-18T16:32:28;6.80;99.90
5786;DHT22;2919;48.630;9.000;2022-11-18T16:34:55;6.80;99.90
5786;DHT22;2919;48.630;9.000;2022-11-18T16:37:21;6.70;99.90
5786;DHT22;2919;48.630;9.000;2022-11-18T16:39:47;6.70;99.90
5786;DHT22;2919;48.630;9.000;2022-11-18T16:42:13;6.60;99.90
5786;DHT22;2919;48.630;9.000;2022-11-18T16:44:38;6.60;99.90
5786;DHT22;2919;48.630;9.000;2022-11-18T16:47:05;6.50;99.90
5786;DHT22;2919;48.630;9.000;2022-11-18T16:49:31;6.50;99.90
5786;DHT22;2919;48.630;9.000;2022-11-18T16:51:56;6.50;99.90
5786;DHT22;2919;48.630;9.000;2022-11-18T16:54:30;6.40;99.90
5786;DHT22;2919;48.630;9.000;2022-11-18T16:56:57;6.40;99.90
5786;DHT22;2919;48.630;9.000;2022-11-18T16:59:24;6.40;99.90
5786;DHT22;2919;48.630;9.000;2022-11-18T17:01:52;6.40;99.90
5786;DHT22;2919;48.630;9.000;2022-11-18T17:04:19;6.40;99.90
5786;DHT22;2919;48.630;9.000;2022-11-18T17:06:46;6.30;99.90
5786;DHT22;2919;48.630;9.000;2022-11-18T17:09:14;6.30;99.90
5786;DHT22;2919;48.630;9.000;2022-11-18T17:11:40;6.30;99.90
5786;DHT22;2919;48.630;9.000;2022-11-18T17:14:06;6.30;99.90
5786;DHT22;2919;48.630;9.000;2022-11-18T17:16:32;6.30;99.90
5786;DHT22;2919;48.630;9.000;2022-11-18T17:18:59;6.40;99.90
5786;DHT22;2919;48.630;9.000;2022-11-18T17:21:26;6.40;99.90
5786;DHT22;2919;48.630;9.000;2022-11-18T17:23:52;6.40;99.90
5786;DHT22;2919;48.630;9.000;2022-11-18T17:26:20;6.40;99.90
5786;DHT22;2919;48.630;9.000;2022-11-18T17:28:46;6.40;99.90
5786;DHT22;2919;48.630;9.000;2022-11-18T17:31:14;6.40;99.90
5786;DHT22;2919;48.630;9.000;2022-11-18T17:33:41;6.30;99.90
5786;DHT22;2919;48.630;9.000;2022-11-18T17:36:15;6.30;99.90
5786;DHT22;2919;48.630;9.000;2022-11-18T17:38:43;6.20;99.90
5786;DHT22;2919;48.630;9.000;2022-11-18T17:41:11;6.20;99.90
5786;DHT22;2919;48.630;9.000;2022-11-18T17:44:00;6.20;99.90
5786;DHT22;2919;48.630;9.000;2022-11-18T17:46:27;6.20;99.90
5786;DHT22;2919;48.630;9.000;2022-11-18T17:48:54;6.20;99.90
5786;DHT22;2919;48.630;9.000;2022-11-18T17:51:20;6.20;99.90
5786;DHT22;2919;48.630;9.000;2022-11-18T17:53:46;6.20;99.90
5786;DHT22;2919;48.630;9.000;2022-11-18T17:56:11;6.20;99.90
5786;DHT22;2919;48.630;9.000;2022-11-18T17:58:37;6.10;99.90
5786;DHT22;2919;48.630;9.000;2022-11-18T18:01:10;6.10;99.90
5786;DHT22;2919;48.630;9.000;2022-11-18T18:03:36;6.00;99.90
5786;DHT22;2919;48.630;9.000;2022-11-18T18:06:03;6.00;99.90
5786;DHT22;2919;48.630;9.000;2022-11-18T18:08:30;6.00;99.90
5786;DHT22;2919;48.630;9.000;2022-11-18T18:11:14;6.00;99.90
5786;DHT22;2919;48.630;9.000;2022-11-18T18:13:40;6.10;99.90
5786;DHT22;2919;48.630;9.000;2022-11-18T18:16:25;6.10;99.90
5786;DHT22;2919;48.630;9.000;2022-11-18T18:18:51;6.20;99.90
5786;DHT22;2919;48.630;9.000;2022-11-18T18:21:17;6.30;99.90
5786;DHT22;2919;48.630;9.000;2022-11-18T18:23:42;6.30;99.90
5786;DHT22;2919;48.630;9.000;2022-11-18T18:26:09;6.30;99.90
5786;DHT22;2919;48.630;9.000;2022-11-18T18:28:36;6.30;99.90
5786;DHT22;2919;48.630;9.000;2022-11-18T18:31:06;6.30;99.90
5786;DHT22;2919;48.630;9.000;2022-11-18T18:33:33;6.30;99.90
5786;DHT22;2919;48.630;9.000;2022-11-18T18:36:02;6.30;99.90
5786;DHT22;2919;48.630;9.000;2022-11-18T18:38:30;6.30;99.90
5786;DHT22;2919;48.630;9.000;2022-11-18T18:41:00;6.20;99.90
5786;DHT22;2919;48.630;9.000;2022-11-18T18:43:26;6.30;99.90
5786;DHT22;2919;48.630;9.000;2022-11-18T18:45:51;6.40;99.90
5786;DHT22;2919;48.630;9.000;2022-11-18T18:48:35;6.40;99.90
5786;DHT22;2919;48.630;9.000;2022-11-18T18:51:02;6.30;99.90
5786;DHT22;2919;48.630;9.000;2022-11-18T18:53:30;6.30;99.90
5786;DHT22;2919;48.630;9.000;2022-11-18T18:55:56;6.20;99.90
5786;DHT22;2919;48.630;9.000;2022-11-18T18:58:21;6.20;99.90
5786;DHT22;2919;48.630;9.000;2022-11-18T19:00:47;6.10;99.90
5786;DHT22;2919;48.630;9.000;2022-11-18T19:03:14;6.10;99.90